createdAt,value
2022-09-12T00:01:45.753Z,99.90
2022-09-12T00:06:47.599Z,99.90
2022-09-12T00:11:49.301Z,99.90
2022-09-12T00:16:51.034Z,99.90
2022-09-12T00:21:53.062Z,99.90
2022-09-12T00:26:54.751Z,99.90
2022-09-12T00:31:56.493Z,99.90
2022-09-12T00:36:58.264Z,99.90
2022-09-12T00:42:00.080Z,99.90
2022-09-12T00:47:17.579Z,99.90
2022-09-12T00:52:27.826Z,99.90
2022-09-12T00:57:41.586Z,99.90
2022-09-12T01:02:45.879Z,99.90
2022-09-12T01:07:50.014Z,99.90
2022-09-12T01:12:51.727Z,99.90
2022-09-12T01:18:02.398Z,99.90
2022-09-12T01:23:45.006Z,99.90
2022-09-12T01:28:55.386Z,99.90
2022-09-12T01:34:07.398Z,99.90
2022-09-12T01:39:14.808Z,99.90
2022-09-12T01:44:23.008Z,99.90
2022-09-12T01:49:29.382Z,99.90
2022-09-12T01:54:39.221Z,99.90
2022-09-12T01:59:46.599Z,99.90
2022-09-12T02:05:04.947Z,99.90
2022-09-12T02:10:12.898Z,99.90
2022-09-12T02:15:18.770Z,99.90
2022-09-12T02:20:46.941Z,99.90
2022-09-12T02:25:51.041Z,99.90
2022-09-12T02:31:22.089Z,99.90
2022-09-12T02:36:49.866Z,99.90
2022-09-12T02:41:53.185Z,99.90
2022-09-12T02:47:01.276Z,99.90
2022-09-12T02:52:03.628Z,99.90
2022-09-12T02:57:22.920Z,99.90
2022-09-12T03:02:36.971Z,99.90
2022-09-12T03:07:56.769Z,99.90
2022-09-12T03:13:14.341Z,99.90
2022-09-12T03:18:28.070Z,99.90
2022-09-12T03:23:44.593Z,99.90
2022-09-12T03:28:48.520Z,99.90
2022-09-12T03:33:50.349Z,99.90
2022-09-12T03:38:52.430Z,99.90
2022-09-12T03:43:54.175Z,99.90
2022-09-12T03:48:55.898Z,99.90
2022-09-12T03:53:57.809Z,99.90
2022-09-12T03:58:59.546Z,99.90
2022-09-12T04:04:01.317Z,99.90
2022-09-12T04:09:03.463Z,99.90
2022-09-12T04:14:05.235Z,99.90
2022-09-12T04:19:06.954Z,99.90
2022-09-12T04:24:08.725Z,99.90
2022-09-12T04:29:12.689Z,99.90
2022-09-12T04:34:15.529Z,99.90
2022-09-12T04:39:17.237Z,99.90
2022-09-12T04:44:18.990Z,99.90
2022-09-12T04:49:20.762Z,99.90
2022-09-12T04:54:22.464Z,99.90
2022-09-12T04:59:24.278Z,99.90
2022-09-12T05:04:25.972Z,99.90
2022-09-12T05:09:27.770Z,99.90
2022-09-12T05:14:29.517Z,99.90
2022-09-12T05:19:31.841Z,99.90
2022-09-12T05:24:33.749Z,99.90
2022-09-12T05:29:35.937Z,99.90
2022-09-12T05:34:37.918Z,99.90
2022-09-12T05:39:39.701Z,99.90
2022-09-12T05:44:41.422Z,99.90
2022-09-12T05:49:47.878Z,99.90
2022-09-12T05:54:49.599Z,99.90
2022-09-12T05:59:51.454Z,99.90
2022-09-12T06:04:53.129Z,99.60
2022-09-12T06:09:54.836Z,96.80
2022-09-12T06:14:56.918Z,93.70
2022-09-12T06:19:58.778Z,92.70
2022-09-12T06:25:00.463Z,93.20
2022-09-12T06:30:02.171Z,94.90
2022-09-12T06:35:05.458Z,94.20
2022-09-12T06:40:08.405Z,91.00
2022-09-12T06:45:11.450Z,89.30
2022-09-12T06:50:13.337Z,89.50
2022-09-12T06:55:19.454Z,88.90
2022-09-12T07:00:22.141Z,92.10
2022-09-12T07:05:23.843Z,92.50
2022-09-12T07:10:26.566Z,91.00
2022-09-12T07:15:28.263Z,82.90
2022-09-12T07:20:31.579Z,82.30
2022-09-12T07:25:33.293Z,75.60
2022-09-12T07:30:37.198Z,73.20
2022-09-12T07:35:39.069Z,72.70
2022-09-12T07:40:41.230Z,78.20
2022-09-12T07:45:43.929Z,75.10
2022-09-12T07:50:45.634Z,75.90
2022-09-12T07:55:56.143Z,74.10
2022-09-12T08:01:05.912Z,71.50
2022-09-12T08:06:10.717Z,68.70
2022-09-12T08:11:14.898Z,67.60
2022-09-12T08:16:20.962Z,71.00
2022-09-12T08:21:26.606Z,75.40
2022-09-12T08:26:28.889Z,74.10
2022-09-12T08:31:37.032Z,77.00
2022-09-12T08:36:38.748Z,76.10
2022-09-12T08:41:44.276Z,73.10
2022-09-12T08:46:55.027Z,70.20
2022-09-12T08:51:59.345Z,69.70
2022-09-12T08:57:06.029Z,71.60
2022-09-12T09:02:48.826Z,71.00
2022-09-12T09:08:24.567Z,70.90
2022-09-12T09:14:07.865Z,70.90
2022-09-12T09:19:18.664Z,70.50
2022-09-12T09:24:24.922Z,69.60
2022-09-12T09:29:45.506Z,69.30
2022-09-12T09:34:48.247Z,71.30
2022-09-12T09:40:02.047Z,70.70
2022-09-12T09:45:15.547Z,70.40
2022-09-12T09:50:17.843Z,72.20
2022-09-12T09:55:24.523Z,72.80
2022-09-12T10:00:34.670Z,72.10
2022-09-12T10:05:47.859Z,74.90
2022-09-12T10:10:53.322Z,72.30
2022-09-12T10:16:03.792Z,72.00
2022-09-12T10:21:24.512Z,72.10
2022-09-12T10:26:28.069Z,74.60
2022-09-12T10:31:49.770Z,74.80
2022-09-12T10:36:55.605Z,73.20
2022-09-12T10:41:57.348Z,74.30
2022-09-12T10:47:18.554Z,72.00
2022-09-12T10:52:24.811Z,75.00
2022-09-12T10:57:57.417Z,75.90
2022-09-12T11:03:35.306Z,74.60
2022-09-12T11:08:55.539Z,76.90
2022-09-12T11:14:35.110Z,77.20
2022-09-12T11:19:46.500Z,76.70
2022-09-12T11:25:19.201Z,79.00
2022-09-12T11:30:20.991Z,81.00
2022-09-12T11:35:34.027Z,81.30
2022-09-12T11:40:47.992Z,82.80
2022-09-12T11:45:50.896Z,84.70
2022-09-12T11:50:53.329Z,83.80
2022-09-12T11:56:14.270Z,81.30
2022-09-12T12:01:31.647Z,77.00
2022-09-12T12:07:01.579Z,80.30
2022-09-12T12:12:08.092Z,77.80
2022-09-12T12:17:19.168Z,77.30
2022-09-12T12:22:24.143Z,77.00
2022-09-12T12:28:01.330Z,78.00
2022-09-12T12:33:10.173Z,73.90
2022-09-12T12:38:33.267Z,75.40
2022-09-12T12:43:34.953Z,75.70
2022-09-12T12:49:23.749Z,77.20
2022-09-12T12:54:40.290Z,77.70
2022-09-12T12:59:55.239Z,79.70
2022-09-12T13:04:59.750Z,79.20
2022-09-12T13:10:02.391Z,80.10
2022-09-12T13:15:24.989Z,77.80
2022-09-12T13:20:33.937Z,79.20
2022-09-12T13:25:37.047Z,80.10
2022-09-12T13:30:59.835Z,79.60
2022-09-12T13:36:37.319Z,76.00
2022-09-12T13:41:44.589Z,74.50
2022-09-12T13:46:47.103Z,75.20
2022-09-12T13:52:08.466Z,73.60
2022-09-12T13:57:34.588Z,72.70
2022-09-12T14:02:37.001Z,71.30
2022-09-12T14:08:02.218Z,73.70
2022-09-12T14:13:18.243Z,75.20
2022-09-12T14:18:28.899Z,75.00
2022-09-12T14:23:32.982Z,74.10
2022-09-12T14:28:36.158Z,72.40
2022-09-12T14:33:51.834Z,73.70
2022-09-12T14:38:57.717Z,73.80
2022-09-12T14:44:05.039Z,73.50
2022-09-12T14:49:34.981Z,70.00
2022-09-12T14:54:37.868Z,69.20
2022-09-12T14:59:40.718Z,68.10
2022-09-12T15:04:45.245Z,70.30
2022-09-12T15:09:47.494Z,70.30
2022-09-12T15:14:49.218Z,69.40
2022-09-12T15:19:50.881Z,68.40
2022-09-12T15:24:53.449Z,69.80
2022-09-12T15:29:55.472Z,71.10
2022-09-12T15:34:57.181Z,70.80
2022-09-12T15:39:58.878Z,72.10
2022-09-12T15:45:02.555Z,72.90
2022-09-12T15:50:05.172Z,74.70
2022-09-12T15:55:19.424Z,75.10
2022-09-12T16:00:21.861Z,75.90
2022-09-12T16:05:25.645Z,76.90
2022-09-12T16:10:31.162Z,77.10
2022-09-12T16:15:33.125Z,78.40
2022-09-12T16:20:35.297Z,78.10
2022-09-12T16:25:38.681Z,79.10
2022-09-12T16:30:40.387Z,79.30
2022-09-12T16:35:42.351Z,80.60
2022-09-12T16:40:44.021Z,80.00
2022-09-12T16:45:45.790Z,81.00
2022-09-12T16:51:00.823Z,82.70
2022-09-12T16:56:03.621Z,83.30
2022-09-12T17:01:06.967Z,84.80
2022-09-12T17:06:11.833Z,84.90
2022-09-12T17:11:16.729Z,86.20
2022-09-12T17:16:23.114Z,86.20
2022-09-12T17:21:25.017Z,87.70
2022-09-12T17:26:26.985Z,88.20
2022-09-12T17:31:28.991Z,89.10
2022-09-12T17:36:32.011Z,89.60
2022-09-12T17:41:33.780Z,90.70
2022-09-12T17:46:37.872Z,91.40
2022-09-12T17:51:40.341Z,92.00
2022-09-12T17:56:43.378Z,92.50
2022-09-12T18:02:04.066Z,93.20
2022-09-12T18:07:05.985Z,93.30
2022-09-12T18:12:08.868Z,93.80
2022-09-12T18:17:11.447Z,94.70
2022-09-12T18:22:13.135Z,95.30
2022-09-12T18:27:14.842Z,96.20
2022-09-12T18:32:16.544Z,96.50
2022-09-12T18:37:18.269Z,96.80
2022-09-12T18:42:19.930Z,97.70
2022-09-12T18:47:21.658Z,97.90
2022-09-12T18:52:23.407Z,98.00
2022-09-12T18:57:25.430Z,97.90
2022-09-12T19:02:29.987Z,98.10
2022-09-12T19:07:32.319Z,99.00
2022-09-12T19:12:33.997Z,99.00
2022-09-12T19:17:35.774Z,99.30
2022-09-12T19:22:37.445Z,99.40
2022-09-12T19:27:39.617Z,99.90
2022-09-12T19:32:41.338Z,99.90
2022-09-12T19:37:43.008Z,99.90
2022-09-12T19:42:44.690Z,99.90
2022-09-12T19:47:46.364Z,99.90
2022-09-12T19:52:48.082Z,99.90
2022-09-12T19:57:49.822Z,99.90
2022-09-12T20:02:52.359Z,99.90
2022-09-12T20:07:54.085Z,99.90
2022-09-12T20:12:55.787Z,99.90
2022-09-12T20:17:57.907Z,99.90
2022-09-12T20:22:59.603Z,99.90
2022-09-12T20:28:01.318Z,99.90
2022-09-12T20:33:03.172Z,99.90
2022-09-12T20:38:04.886Z,99.90
2022-09-12T20:43:06.559Z,99.90
2022-09-12T20:48:08.267Z,99.20
2022-09-12T20:53:09.997Z,97.90
2022-09-12T20:58:11.669Z,97.30
2022-09-12T21:03:14.642Z,97.60
2022-09-12T21:08:16.694Z,97.80
2022-09-12T21:13:18.399Z,98.30
2022-09-12T21:18:20.106Z,98.90
2022-09-12T21:23:23.155Z,99.10
2022-09-12T21:28:25.066Z,99.40
2022-09-12T21:33:27.648Z,99.40
2022-09-12T21:38:30.671Z,99.90
2022-09-12T21:43:32.396Z,99.90
2022-09-12T21:48:34.599Z,99.90
2022-09-12T21:53:37.352Z,99.90
2022-09-12T21:58:39.240Z,99.90
2022-09-12T22:03:43.028Z,99.90
2022-09-12T22:08:44.750Z,99.90
2022-09-12T22:13:46.486Z,99.90
2022-09-12T22:18:49.051Z,99.90
2022-09-12T22:24:10.154Z,99.90
2022-09-12T22:29:16.042Z,99.90
2022-09-12T22:34:17.773Z,99.90
2022-09-12T22:39:19.943Z,99.90
2022-09-12T22:44:21.646Z,99.90
2022-09-12T22:49:23.559Z,99.90
2022-09-12T22:54:25.276Z,99.90
2022-09-12T22:59:26.985Z,99.90
2022-09-12T23:04:28.742Z,99.90
2022-09-12T23:09:35.123Z,99.90
2022-09-12T23:14:37.177Z,99.90
2022-09-12T23:19:38.870Z,99.90
2022-09-12T23:24:40.562Z,99.90
2022-09-12T23:29:42.259Z,99.90
2022-09-12T23:34:44.790Z,99.90
2022-09-12T23:39:46.510Z,99.90
2022-09-12T23:44:48.235Z,99.90
2022-09-12T23:49:49.926Z,99.90
2022-09-12T23:54:51.604Z,99.90
2022-09-12T23:59:53.727Z,99.90
